sensor_id;sensor_type;location;lat;lon;timestamp;temperature;humidity
62464;SHT31;48512;48.552;9.380;2022-08-11T00:00:04;18.65;53.95
62464;SHT31;48512;48.552;9.380;2022-08-11T00:02:36;18.48;54.71
62464;SHT31;48512;48.552;9.380;2022-08-11T00:05:13;18.69;54.24
62464;SHT31;48512;48.552;9.380;2022-08-11T00:07:48;18.49;54.43
62464;SHT31;48512;48.552;9.380;2022-08-11T00:10:18;18.58;54.31
62464;SHT31;48512;48.552;9.380;2022-08-11T00:12:55;18.56;54.23
62464;SHT31;48512;48.552;9.380;2022-08-11T00:15:25;18.56;54.87
62464;SHT31;48512;48.552;9.380;2022-08-11T00:17:59;18.69;54.09
62464;SHT31;48512;48.552;9.380;2022-08-11T00:20:39;18.65;54.29
62464;SHT31;48512;48.552;9.380;2022-08-11T00:23:11;18.67;54.16
62464;SHT31;48512;48.552;9.380;2022-08-11T00:25:46;18.53;54.56
62464;SHT31;48512;48.552;9.380;2022-08-11T00:28:29;18.51;54.94
62464;SHT31;48512;48.552;9.380;2022-08-11T00:30:58;18.39;55.19
62464;SHT31;48512;48.552;9.380;2022-08-11T00:33:32;18.55;55.00
62464;SHT31;48512;48.552;9.380;2022-08-11T00:35:59;18.48;55.10
62464;SHT31;48512;48.552;9.380;2022-08-11T00:38:29;18.38;55.38
62464;SHT31;48512;48.552;9.380;2022-08-11T00:52:54;18.39;55.53
62464;SHT31;48512;48.552;9.380;2022-08-11T01:24:46;18.21;56.19
62464;SHT31;48512;48.552;9.380;2022-08-11T01:28:19;18.24;55.73
62464;SHT31;48512;48.552;9.380;2022-08-11T01:53:17;18.14;56.65
62464;SHT31;48512;48.552;9.380;2022-08-11T02:13:31;18.20;56.32
62464;SHT31;48512;48.552;9.380;2022-08-11T02:19:03;18.18;56.08
62464;SHT31;48512;48.552;9.380;2022-08-11T02:22:06;18.25;56.10
62464;SHT31;48512;48.552;9.380;2022-08-11T02:25:05;18.21;56.11
62464;SHT31;48512;48.552;9.380;2022-08-11T02:27:40;18.27;55.71
62464;SHT31;48512;48.552;9.380;2022-08-11T02:30:11;18.27;55.52
62464;SHT31;48512;48.552;9.380;2022-08-11T02:32:50;18.27;55.77
62464;SHT31;48512;48.552;9.380;2022-08-11T02:35:50;18.29;56.01
62464;SHT31;48512;48.552;9.380;2022-08-11T02:44:26;18.32;56.16
62464;SHT31;48512;48.552;9.380;2022-08-11T02:49:46;18.28;56.03
62464;SHT31;48512;48.552;9.380;2022-08-11T02:52:21;18.24;56.12
62464;SHT31;48512;48.552;9.380;2022-08-11T03:00:16;18.35;55.66
62464;SHT31;48512;48.552;9.380;2022-08-11T03:08:23;18.29;56.16
62464;SHT31;48512;48.552;9.380;2022-08-11T03:11:09;18.34;56.00
62464;SHT31;48512;48.552;9.380;2022-08-11T03:22:16;18.37;55.56
62464;SHT31;48512;48.552;9.380;2022-08-11T03:25:02;18.31;55.78
62464;SHT31;48512;48.552;9.380;2022-08-11T03:32:40;18.32;55.78
62464;SHT31;48512;48.552;9.380;2022-08-11T03:35:11;18.38;55.83
62464;SHT31;48512;48.552;9.380;2022-08-11T03:37:59;18.28;56.14
62464;SHT31;48512;48.552;9.380;2022-08-11T03:46:34;18.28;56.19
62464;SHT31;48512;48.552;9.380;2022-08-11T03:49:21;18.27;56.52
62464;SHT31;48512;48.552;9.380;2022-08-11T03:52:20;18.17;56.83
62464;SHT31;48512;48.552;9.380;2022-08-11T03:55:09;18.11;56.31
62464;SHT31;48512;48.552;9.380;2022-08-11T04:00:54;18.20;55.93
62464;SHT31;48512;48.552;9.380;2022-08-11T04:20:37;18.18;56.76
62464;SHT31;48512;48.552;9.380;2022-08-11T04:29:05;18.05;56.88
62464;SHT31;48512;48.552;9.380;2022-08-11T04:31:52;18.14;56.66
62464;SHT31;48512;48.552;9.380;2022-08-11T04:46:22;18.12;57.18
62464;SHT31;48512;48.552;9.380;2022-08-11T05:12:56;18.51;56.38
62464;SHT31;48512;48.552;9.380;2022-08-11T05:15:48;18.35;56.74
62464;SHT31;48512;48.552;9.380;2022-08-11T05:18:37;18.55;56.18
62464;SHT31;48512;48.552;9.380;2022-08-11T05:21:28;18.42;56.54
62464;SHT31;48512;48.552;9.380;2022-08-11T05:24:34;18.51;56.43
62464;SHT31;48512;48.552;9.380;2022-08-11T05:27:22;18.58;56.08
62464;SHT31;48512;48.552;9.380;2022-08-11T05:30:10;18.52;56.49
62464;SHT31;48512;48.552;9.380;2022-08-11T05:33:00;18.76;55.78
62464;SHT31;48512;48.552;9.380;2022-08-11T05:35:47;18.63;56.26
62464;SHT31;48512;48.552;9.380;2022-08-11T05:38:22;18.76;55.98
62464;SHT31;48512;48.552;9.380;2022-08-11T05:41:12;18.70;56.38
62464;SHT31;48512;48.552;9.380;2022-08-11T05:43:59;18.77;56.30
62464;SHT31;48512;48.552;9.380;2022-08-11T05:46:43;18.85;55.84
62464;SHT31;48512;48.552;9.380;2022-08-11T05:49:32;18.83;56.26
62464;SHT31;48512;48.552;9.380;2022-08-11T05:52:20;18.93;56.34
62464;SHT31;48512;48.552;9.380;2022-08-11T05:55:05;18.96;56.26
62464;SHT31;48512;48.552;9.380;2022-08-11T05:58:02;19.08;55.47
62464;SHT31;48512;48.552;9.380;2022-08-11T06:00:28;19.11;55.48
62464;SHT31;48512;48.552;9.380;2022-08-11T06:02:58;19.20;55.56
62464;SHT31;48512;48.552;9.380;2022-08-11T06:05:36;19.25;55.43
62464;SHT31;48512;48.552;9.380;2022-08-11T06:08:04;19.27;54.94
62464;SHT31;48512;48.552;9.380;2022-08-11T06:10:32;19.25;55.20
62464;SHT31;48512;48.552;9.380;2022-08-11T06:12:58;19.31;55.11
62464;SHT31;48512;48.552;9.380;2022-08-11T06:15:26;19.32;55.54
62464;SHT31;48512;48.552;9.380;2022-08-11T06:17:53;19.44;54.77
62464;SHT31;48512;48.552;9.380;2022-08-11T06:20:20;19.45;54.69
62464;SHT31;48512;48.552;9.380;2022-08-11T06:22:55;19.44;55.42
62464;SHT31;48512;48.552;9.380;2022-08-11T06:25:22;19.54;55.17
62464;SHT31;48512;48.552;9.380;2022-08-11T06:27:54;19.54;56.21
62464;SHT31;48512;48.552;9.380;2022-08-11T06:30:32;19.55;56.11
62464;SHT31;48512;48.552;9.380;2022-08-11T06:32:59;19.58;56.47
62464;SHT31;48512;48.552;9.380;2022-08-11T06:35:37;19.66;55.39
62464;SHT31;48512;48.552;9.380;2022-08-11T06:38:12;19.83;53.80
62464;SHT31;48512;48.552;9.380;2022-08-11T06:41:15;19.79;53.97
62464;SHT31;48512;48.552;9.380;2022-08-11T06:46:36;20.14;52.64
62464;SHT31;48512;48.552;9.380;2022-08-11T06:49:05;20.12;52.92
62464;SHT31;48512;48.552;9.380;2022-08-11T06:51:33;20.13;52.84
62464;SHT31;48512;48.552;9.380;2022-08-11T06:54:00;20.21;53.22
62464;SHT31;48512;48.552;9.380;2022-08-11T06:56:30;20.37;52.66
62464;SHT31;48512;48.552;9.380;2022-08-11T06:59:19;20.44;51.96
62464;SHT31;48512;48.552;9.380;2022-08-11T07:02:21;20.44;52.23
62464;SHT31;48512;48.552;9.380;2022-08-11T07:05:01;20.61;51.87
62464;SHT31;48512;48.552;9.380;2022-08-11T07:13:40;20.79;53.88
62464;SHT31;48512;48.552;9.380;2022-08-11T07:16:27;20.91;51.49
62464;SHT31;48512;48.552;9.380;2022-08-11T07:19:01;21.02;50.43
62464;SHT31;48512;48.552;9.380;2022-08-11T07:21:45;21.00;51.83
62464;SHT31;48512;48.552;9.380;2022-08-11T07:24:41;21.07;52.93
62464;SHT31;48512;48.552;9.380;2022-08-11T07:27:51;21.12;53.41
62464;SHT31;48512;48.552;9.380;2022-08-11T07:30:36;21.13;53.52
62464;SHT31;48512;48.552;9.380;2022-08-11T07:33:04;21.27;53.09
62464;SHT31;48512;48.552;9.380;2022-08-11T07:35:34;21.34;52.51
62464;SHT31;48512;48.552;9.380;2022-08-11T07:38:01;21.34;53.03
62464;SHT31;48512;48.552;9.380;2022-08-11T07:40:27;21.43;52.10
62464;SHT31;48512;48.552;9.380;2022-08-11T07:42:54;21.49;51.40
62464;SHT31;48512;48.552;9.380;2022-08-11T07:45:21;21.53;51.13
62464;SHT31;48512;48.552;9.380;2022-08-11T07:48:06;21.64;51.94
62464;SHT31;48512;48.552;9.380;2022-08-11T07:50:51;21.68;51.16
62464;SHT31;48512;48.552;9.380;2022-08-11T07:53:36;21.84;49.02
62464;SHT31;48512;48.552;9.380;2022-08-11T07:56:03;21.88;51.31
62464;SHT31;48512;48.552;9.380;2022-08-11T07:58:30;22.05;48.41
62464;SHT31;48512;48.552;9.380;2022-08-11T08:01:18;22.20;47.40
62464;SHT31;48512;48.552;9.380;2022-08-11T08:04:04;22.25;46.51
62464;SHT31;48512;48.552;9.380;2022-08-11T08:06:49;22.45;47.07
62464;SHT31;48512;48.552;9.380;2022-08-11T08:09:33;22.70;47.80
62464;SHT31;48512;48.552;9.380;2022-08-11T08:12:23;22.80;45.50
62464;SHT31;48512;48.552;9.380;2022-08-11T08:15:08;22.91;45.54
62464;SHT31;48512;48.552;9.380;2022-08-11T08:17:54;23.08;45.44
62464;SHT31;48512;48.552;9.380;2022-08-11T08:23:00;23.18;44.52
62464;SHT31;48512;48.552;9.380;2022-08-11T08:25:31;23.38;44.00
62464;SHT31;48512;48.552;9.380;2022-08-11T08:27:59;23.48;44.30
62464;SHT31;48512;48.552;9.380;2022-08-11T08:30:26;23.48;44.30
62464;SHT31;48512;48.552;9.380;2022-08-11T08:33:27;23.57;43.93
62464;SHT31;48512;48.552;9.380;2022-08-11T08:35:58;23.70;44.11
62464;SHT31;48512;48.552;9.380;2022-08-11T08:38:41;23.80;43.53
62464;SHT31;48512;48.552;9.380;2022-08-11T08:41:07;23.81;43.66
62464;SHT31;48512;48.552;9.380;2022-08-11T08:43:35;23.96;44.47
62464;SHT31;48512;48.552;9.380;2022-08-11T08:46:04;24.08;43.58
62464;SHT31;48512;48.552;9.380;2022-08-11T08:48:31;24.18;43.99
62464;SHT31;48512;48.552;9.380;2022-08-11T08:51:01;24.35;42.44
62464;SHT31;48512;48.552;9.380;2022-08-11T08:53:50;24.56;40.78
62464;SHT31;48512;48.552;9.380;2022-08-11T08:56:17;24.56;41.66
62464;SHT31;48512;48.552;9.380;2022-08-11T08:58:45;24.61;41.94
62464;SHT31;48512;48.552;9.380;2022-08-11T09:01:12;24.87;41.69
62464;SHT31;48512;48.552;9.380;2022-08-11T09:03:39;25.20;40.08
62464;SHT31;48512;48.552;9.380;2022-08-11T09:06:06;25.34;38.75
62464;SHT31;48512;48.552;9.380;2022-08-11T09:08:32;25.48;38.36
62464;SHT31;48512;48.552;9.380;2022-08-11T09:11:00;25.51;39.62
62464;SHT31;48512;48.552;9.380;2022-08-11T09:13:45;25.57;37.65
62464;SHT31;48512;48.552;9.380;2022-08-11T09:16:11;25.85;38.02
62464;SHT31;48512;48.552;9.380;2022-08-11T09:18:40;26.07;37.87
62464;SHT31;48512;48.552;9.380;2022-08-11T09:21:10;26.12;38.05
62464;SHT31;48512;48.552;9.380;2022-08-11T09:23:39;26.40;36.57
62464;SHT31;48512;48.552;9.380;2022-08-11T09:26:23;26.52;37.19
62464;SHT31;48512;48.552;9.380;2022-08-11T09:29:08;26.19;36.49
62464;SHT31;48512;48.552;9.380;2022-08-11T09:31:34;26.57;36.56
62464;SHT31;48512;48.552;9.380;2022-08-11T09:34:00;26.78;35.48
62464;SHT31;48512;48.552;9.380;2022-08-11T09:36:26;26.84;35.70
62464;SHT31;48512;48.552;9.380;2022-08-11T09:39:11;27.13;35.21
62464;SHT31;48512;48.552;9.380;2022-08-11T09:41:57;27.25;35.37
62464;SHT31;48512;48.552;9.380;2022-08-11T09:44:23;27.33;35.25
62464;SHT31;48512;48.552;9.380;2022-08-11T09:47:07;27.68;34.87
62464;SHT31;48512;48.552;9.380;2022-08-11T09:49:39;27.78;33.55
62464;SHT31;48512;48.552;9.380;2022-08-11T09:52:06;27.85;33.31
62464;SHT31;48512;48.552;9.380;2022-08-11T09:54:33;27.73;33.32
62464;SHT31;48512;48.552;9.380;2022-08-11T09:56:59;27.90;33.81
62464;SHT31;48512;48.552;9.380;2022-08-11T09:59:43;28.32;32.98
62464;SHT31;48512;48.552;9.380;2022-08-11T10:02:09;28.06;32.93
62464;SHT31;48512;48.552;9.380;2022-08-11T10:04:43;28.39;33.54
62464;SHT31;48512;48.552;9.380;2022-08-11T10:07:14;28.53;33.12
62464;SHT31;48512;48.552;9.380;2022-08-11T10:12:12;28.90;31.77
62464;SHT31;48512;48.552;9.380;2022-08-11T10:14:43;28.91;31.56
62464;SHT31;48512;48.552;9.380;2022-08-11T10:17:30;28.84;31.30
62464;SHT31;48512;48.552;9.380;2022-08-11T10:19:57;29.10;30.75
62464;SHT31;48512;48.552;9.380;2022-08-11T10:22:26;29.28;31.50
62464;SHT31;48512;48.552;9.380;2022-08-11T10:25:12;29.66;30.43
62464;SHT31;48512;48.552;9.380;2022-08-11T10:27:57;29.46;31.83
62464;SHT31;48512;48.552;9.380;2022-08-11T10:30:28;29.36;31.57
62464;SHT31;48512;48.552;9.380;2022-08-11T10:33:12;29.24;30.41
62464;SHT31;48512;48.552;9.380;2022-08-11T10:35:57;28.87;31.10
62464;SHT31;48512;48.552;9.380;2022-08-11T10:38:24;29.51;29.66
62464;SHT31;48512;48.552;9.380;2022-08-11T10:40:51;29.87;29.44
62464;SHT31;48512;48.552;9.380;2022-08-11T10:43:38;30.32;30.22
62464;SHT31;48512;48.552;9.380;2022-08-11T10:46:07;30.65;26.52
62464;SHT31;48512;48.552;9.380;2022-08-11T10:48:53;30.59;27.93
62464;SHT31;48512;48.552;9.380;2022-08-11T10:51:19;30.66;27.77
62464;SHT31;48512;48.552;9.380;2022-08-11T10:53:47;30.61;27.00
62464;SHT31;48512;48.552;9.380;2022-08-11T10:56:35;30.99;28.65
62464;SHT31;48512;48.552;9.380;2022-08-11T10:59:21;31.51;27.29
62464;SHT31;48512;48.552;9.380;2022-08-11T11:01:48;31.82;26.36
62464;SHT31;48512;48.552;9.380;2022-08-11T11:04:23;31.95;27.18
62464;SHT31;48512;48.552;9.380;2022-08-11T11:07:17;31.98;26.75
62464;SHT31;48512;48.552;9.380;2022-08-11T11:09:56;32.01;25.98
62464;SHT31;48512;48.552;9.380;2022-08-11T11:12:26;32.25;25.57
62464;SHT31;48512;48.552;9.380;2022-08-11T11:15:13;31.92;25.95
62464;SHT31;48512;48.552;9.380;2022-08-11T11:18:07;32.26;27.69
62464;SHT31;48512;48.552;9.380;2022-08-11T11:20:46;31.77;27.69
62464;SHT31;48512;48.552;9.380;2022-08-11T11:36:44;33.18;25.36
62464;SHT31;48512;48.552;9.380;2022-08-11T11:39:10;33.36;25.18
62464;SHT31;48512;48.552;9.380;2022-08-11T11:41:36;32.88;25.48
62464;SHT31;48512;48.552;9.380;2022-08-11T11:44:02;33.45;24.93
62464;SHT31;48512;48.552;9.380;2022-08-11T11:46:29;33.63;24.35
62464;SHT31;48512;48.552;9.380;2022-08-11T11:48:56;33.04;25.11
62464;SHT31;48512;48.552;9.380;2022-08-11T11:51:24;33.52;25.54
62464;SHT31;48512;48.552;9.380;2022-08-11T11:53:50;34.18;25.63
62464;SHT31;48512;48.552;9.380;2022-08-11T11:56:17;34.03;24.92
62464;SHT31;48512;48.552;9.380;2022-08-11T11:58:43;34.45;24.19
62464;SHT31;48512;48.552;9.380;2022-08-11T12:01:28;33.43;24.81
62464;SHT31;48512;48.552;9.380;2022-08-11T12:03:55;33.42;24.95
62464;SHT31;48512;48.552;9.380;2022-08-11T12:06:23;33.65;25.54
62464;SHT31;48512;48.552;9.380;2022-08-11T12:08:51;34.00;25.43
62464;SHT31;48512;48.552;9.380;2022-08-11T12:11:18;34.53;24.42
62464;SHT31;48512;48.552;9.380;2022-08-11T12:14:05;33.86;24.39
62464;SHT31;48512;48.552;9.380;2022-08-11T12:16:33;33.90;24.88
62464;SHT31;48512;48.552;9.380;2022-08-11T12:19:00;34.52;24.80
62464;SHT31;48512;48.552;9.380;2022-08-11T12:21:27;34.72;24.23
62464;SHT31;48512;48.552;9.380;2022-08-11T12:23:55;34.51;24.16
62464;SHT31;48512;48.552;9.380;2022-08-11T12:26:39;33.78;23.56
62464;SHT31;48512;48.552;9.380;2022-08-11T12:29:26;33.63;24.53
62464;SHT31;48512;48.552;9.380;2022-08-11T12:31:53;34.10;24.01
62464;SHT31;48512;48.552;9.380;2022-08-11T12:34:20;33.56;24.31
62464;SHT31;48512;48.552;9.380;2022-08-11T12:36:52;34.56;23.97
62464;SHT31;48512;48.552;9.380;2022-08-11T12:39:21;34.70;23.49
62464;SHT31;48512;48.552;9.380;2022-08-11T12:42:11;34.47;24.44
62464;SHT31;48512;48.552;9.380;2022-08-11T12:44:57;34.60;23.67
62464;SHT31;48512;48.552;9.380;2022-08-11T12:47:49;35.50;23.21
62464;SHT31;48512;48.552;9.380;2022-08-11T12:50:34;35.89;23.09
62464;SHT31;48512;48.552;9.380;2022-08-11T12:53:26;34.62;23.60
62464;SHT31;48512;48.552;9.380;2022-08-11T12:55:54;35.88;21.56
62464;SHT31;48512;48.552;9.380;2022-08-11T12:58:40;36.26;21.77
62464;SHT31;48512;48.552;9.380;2022-08-11T13:01:07;35.61;22.63
62464;SHT31;48512;48.552;9.380;2022-08-11T13:03:52;35.00;22.66
62464;SHT31;48512;48.552;9.380;2022-08-11T13:06:37;35.82;22.43
62464;SHT31;48512;48.552;9.380;2022-08-11T13:09:03;36.00;22.33
62464;SHT31;48512;48.552;9.380;2022-08-11T13:11:30;34.80;22.64
62464;SHT31;48512;48.552;9.380;2022-08-11T13:14:14;34.28;23.80
62464;SHT31;48512;48.552;9.380;2022-08-11T13:16:41;34.89;23.23
62464;SHT31;48512;48.552;9.380;2022-08-11T13:19:26;34.96;22.90
62464;SHT31;48512;48.552;9.380;2022-08-11T13:21:52;35.23;23.26
62464;SHT31;48512;48.552;9.380;2022-08-11T13:24:19;35.43;22.54
62464;SHT31;48512;48.552;9.380;2022-08-11T13:26:46;35.50;22.63
62464;SHT31;48512;48.552;9.380;2022-08-11T13:29:24;35.23;23.28
62464;SHT31;48512;48.552;9.380;2022-08-11T13:31:52;36.00;22.27
62464;SHT31;48512;48.552;9.380;2022-08-11T13:34:19;34.80;22.52
62464;SHT31;48512;48.552;9.380;2022-08-11T13:36:48;35.44;22.38
62464;SHT31;48512;48.552;9.380;2022-08-11T13:39:14;35.43;21.78
62464;SHT31;48512;48.552;9.380;2022-08-11T13:41:41;36.03;22.18
62464;SHT31;48512;48.552;9.380;2022-08-11T13:44:10;36.51;22.67
62464;SHT31;48512;48.552;9.380;2022-08-11T13:46:36;36.43;23.29
62464;SHT31;48512;48.552;9.380;2022-08-11T13:49:03;36.48;22.39
62464;SHT31;48512;48.552;9.380;2022-08-11T13:51:31;36.96;21.95
62464;SHT31;48512;48.552;9.380;2022-08-11T13:54:03;37.56;21.45
62464;SHT31;48512;48.552;9.380;2022-08-11T13:56:31;36.15;22.26
62464;SHT31;48512;48.552;9.380;2022-08-11T13:58:57;35.40;23.31
62464;SHT31;48512;48.552;9.380;2022-08-11T14:01:28;36.41;22.68
62464;SHT31;48512;48.552;9.380;2022-08-11T14:04:02;36.73;21.62
62464;SHT31;48512;48.552;9.380;2022-08-11T14:06:30;35.81;21.78
62464;SHT31;48512;48.552;9.380;2022-08-11T14:08:56;35.89;22.11
62464;SHT31;48512;48.552;9.380;2022-08-11T14:11:22;36.30;21.35
62464;SHT31;48512;48.552;9.380;2022-08-11T14:14:09;36.35;22.04
62464;SHT31;48512;48.552;9.380;2022-08-11T14:16:40;36.36;22.35
62464;SHT31;48512;48.552;9.380;2022-08-11T14:19:08;36.88;21.82
62464;SHT31;48512;48.552;9.380;2022-08-11T14:21:38;35.85;22.60
62464;SHT31;48512;48.552;9.380;2022-08-11T14:24:25;36.56;22.23
62464;SHT31;48512;48.552;9.380;2022-08-11T14:26:51;36.35;22.29
62464;SHT31;48512;48.552;9.380;2022-08-11T14:29:19;36.12;23.01
62464;SHT31;48512;48.552;9.380;2022-08-11T14:31:57;35.99;22.81
62464;SHT31;48512;48.552;9.380;2022-08-11T14:34:25;35.14;23.29
62464;SHT31;48512;48.552;9.380;2022-08-11T14:36:54;35.43;22.93
62464;SHT31;48512;48.552;9.380;2022-08-11T14:39:23;35.24;23.23
62464;SHT31;48512;48.552;9.380;2022-08-11T14:41:53;35.99;22.23
62464;SHT31;48512;48.552;9.380;2022-08-11T14:44:39;36.68;21.49
62464;SHT31;48512;48.552;9.380;2022-08-11T14:47:26;35.44;22.27
62464;SHT31;48512;48.552;9.380;2022-08-11T14:49:54;35.85;22.08
62464;SHT31;48512;48.552;9.380;2022-08-11T14:52:22;36.32;22.25
62464;SHT31;48512;48.552;9.380;2022-08-11T14:54:51;35.02;22.29
62464;SHT31;48512;48.552;9.380;2022-08-11T14:57:37;36.09;22.09
62464;SHT31;48512;48.552;9.380;2022-08-11T15:00:06;36.32;21.44
62464;SHT31;48512;48.552;9.380;2022-08-11T15:02:33;35.47;21.21
62464;SHT31;48512;48.552;9.380;2022-08-11T15:05:20;35.79;22.79
62464;SHT31;48512;48.552;9.380;2022-08-11T15:07:45;36.09;21.37
62464;SHT31;48512;48.552;9.380;2022-08-11T15:10:11;35.62;21.90
62464;SHT31;48512;48.552;9.380;2022-08-11T15:12:38;35.38;22.20
62464;SHT31;48512;48.552;9.380;2022-08-11T15:15:06;35.95;21.22
62464;SHT31;48512;48.552;9.380;2022-08-11T15:18:05;36.23;20.42
62464;SHT31;48512;48.552;9.380;2022-08-11T15:20:32;36.41;20.62
62464;SHT31;48512;48.552;9.380;2022-08-11T15:23:16;36.30;21.38
62464;SHT31;48512;48.552;9.380;2022-08-11T15:26:10;34.55;22.41
62464;SHT31;48512;48.552;9.380;2022-08-11T15:28:47;35.55;21.55
62464;SHT31;48512;48.552;9.380;2022-08-11T15:31:32;35.48;21.39
62464;SHT31;48512;48.552;9.380;2022-08-11T15:34:21;35.23;21.63
62464;SHT31;48512;48.552;9.380;2022-08-11T15:37:11;35.35;22.33
62464;SHT31;48512;48.552;9.380;2022-08-11T15:46:07;34.70;22.03
62464;SHT31;48512;48.552;9.380;2022-08-11T15:48:42;35.02;21.54
62464;SHT31;48512;48.552;9.380;2022-08-11T15:51:19;35.44;22.37
62464;SHT31;48512;48.552;9.380;2022-08-11T15:53:56;36.10;20.70
62464;SHT31;48512;48.552;9.380;2022-08-11T15:56:24;35.84;20.09
62464;SHT31;48512;48.552;9.380;2022-08-11T15:58:51;35.84;20.58
62464;SHT31;48512;48.552;9.380;2022-08-11T16:01:38;35.82;20.67
62464;SHT31;48512;48.552;9.380;2022-08-11T16:04:25;35.35;21.04
62464;SHT31;48512;48.552;9.380;2022-08-11T16:07:11;34.99;21.04
62464;SHT31;48512;48.552;9.380;2022-08-11T16:09:47;35.21;21.16
62464;SHT31;48512;48.552;9.380;2022-08-11T16:12:17;35.43;21.16
62464;SHT31;48512;48.552;9.380;2022-08-11T16:14:45;35.31;21.61
62464;SHT31;48512;48.552;9.380;2022-08-11T16:17:34;35.72;21.29
62464;SHT31;48512;48.552;9.380;2022-08-11T16:20:02;35.40;21.86
62464;SHT31;48512;48.552;9.380;2022-08-11T16:22:29;35.48;21.57
62464;SHT31;48512;48.552;9.380;2022-08-11T16:25:20;35.45;21.37
62464;SHT31;48512;48.552;9.380;2022-08-11T16:27:52;35.38;21.10
62464;SHT31;48512;48.552;9.380;2022-08-11T16:30:19;34.86;21.22
62464;SHT31;48512;48.552;9.380;2022-08-11T16:32:48;34.75;22.01
62464;SHT31;48512;48.552;9.380;2022-08-11T16:35:26;34.99;21.72
62464;SHT31;48512;48.552;9.380;2022-08-11T16:38:12;34.99;21.52
62464;SHT31;48512;48.552;9.380;2022-08-11T16:40:57;35.34;21.38
62464;SHT31;48512;48.552;9.380;2022-08-11T16:43:27;34.97;21.23
62464;SHT31;48512;48.552;9.380;2022-08-11T16:46:18;34.85;21.24
62464;SHT31;48512;48.552;9.380;2022-08-11T16:49:26;34.89;21.34
62464;SHT31;48512;48.552;9.380;2022-08-11T16:51:53;34.90;21.06
62464;SHT31;48512;48.552;9.380;2022-08-11T16:54:18;34.39;21.38
62464;SHT31;48512;48.552;9.380;2022-08-11T16:56:47;34.07;21.76
62464;SHT31;48512;48.552;9.380;2022-08-11T16:59:24;33.76;22.02
62464;SHT31;48512;48.552;9.380;2022-08-11T17:01:55;33.84;22.53
62464;SHT31;48512;48.552;9.380;2022-08-11T17:04:45;34.12;21.31
62464;SHT31;48512;48.552;9.380;2022-08-11T17:07:31;33.80;22.29
62464;SHT31;48512;48.552;9.380;2022-08-11T17:10:28;34.00;21.63
62464;SHT31;48512;48.552;9.380;2022-08-11T17:13:14;33.83;21.56
62464;SHT31;48512;48.552;9.380;2022-08-11T17:15:45;33.76;21.80
62464;SHT31;48512;48.552;9.380;2022-08-11T17:18:32;33.59;21.22
62464;SHT31;48512;48.552;9.380;2022-08-11T17:21:26;33.66;21.60
62464;SHT31;48512;48.552;9.380;2022-08-11T17:23:59;33.53;21.56
62464;SHT31;48512;48.552;9.380;2022-08-11T17:26:32;33.57;21.83
62464;SHT31;48512;48.552;9.380;2022-08-11T17:35:20;32.73;23.42
62464;SHT31;48512;48.552;9.380;2022-08-11T17:38:15;32.87;22.36
62464;SHT31;48512;48.552;9.380;2022-08-11T17:40:51;32.63;23.29
62464;SHT31;48512;48.552;9.380;2022-08-11T17:43:36;32.49;22.77
62464;SHT31;48512;48.552;9.380;2022-08-11T17:46:20;32.29;23.73
62464;SHT31;48512;48.552;9.380;2022-08-11T17:49:06;32.25;23.28
62464;SHT31;48512;48.552;9.380;2022-08-11T17:51:33;32.29;23.46
62464;SHT31;48512;48.552;9.380;2022-08-11T17:54:25;32.20;23.73
62464;SHT31;48512;48.552;9.380;2022-08-11T17:57:10;31.85;23.87
62464;SHT31;48512;48.552;9.380;2022-08-11T17:59:56;31.89;24.18
62464;SHT31;48512;48.552;9.380;2022-08-11T18:02:29;31.74;23.95
62464;SHT31;48512;48.552;9.380;2022-08-11T18:05:15;31.62;24.08
62464;SHT31;48512;48.552;9.380;2022-08-11T18:07:43;31.34;25.30
62464;SHT31;48512;48.552;9.380;2022-08-11T18:10:29;31.09;25.77
62464;SHT31;48512;48.552;9.380;2022-08-11T18:13:16;30.80;25.88
62464;SHT31;48512;48.552;9.380;2022-08-11T18:16:01;30.68;26.55
62464;SHT31;48512;48.552;9.380;2022-08-11T18:18:46;30.56;26.23
62464;SHT31;48512;48.552;9.380;2022-08-11T18:21:30;30.31;26.84
62464;SHT31;48512;48.552;9.380;2022-08-11T18:24:17;30.11;28.12
62464;SHT31;48512;48.552;9.380;2022-08-11T18:27:07;30.10;30.32
62464;SHT31;48512;48.552;9.380;2022-08-11T18:29:53;29.93;31.63
62464;SHT31;48512;48.552;9.380;2022-08-11T18:32:40;29.62;30.39
62464;SHT31;48512;48.552;9.380;2022-08-11T18:35:26;29.43;30.67
62464;SHT31;48512;48.552;9.380;2022-08-11T18:38:12;29.04;30.72
62464;SHT31;48512;48.552;9.380;2022-08-11T18:40:57;28.68;31.92
62464;SHT31;48512;48.552;9.380;2022-08-11T18:43:43;28.22;32.78
62464;SHT31;48512;48.552;9.380;2022-08-11T18:46:32;27.82;33.81
62464;SHT31;48512;48.552;9.380;2022-08-11T18:49:21;27.65;34.31
62464;SHT31;48512;48.552;9.380;2022-08-11T18:52:07;27.15;34.90
62464;SHT31;48512;48.552;9.380;2022-08-11T18:54:56;26.57;36.13
62464;SHT31;48512;48.552;9.380;2022-08-11T18:57:42;26.16;36.57
62464;SHT31;48512;48.552;9.380;2022-08-11T19:00:30;26.00;36.69
62464;SHT31;48512;48.552;9.380;2022-08-11T19:03:15;25.90;36.81
62464;SHT31;48512;48.552;9.380;2022-08-11T19:06:02;25.81;36.62
62464;SHT31;48512;48.552;9.380;2022-08-11T19:08:51;25.61;36.64
62464;SHT31;48512;48.552;9.380;2022-08-11T19:11:35;25.44;36.90
62464;SHT31;48512;48.552;9.380;2022-08-11T19:14:20;25.28;37.30
62464;SHT31;48512;48.552;9.380;2022-08-11T19:17:05;24.96;37.68
62464;SHT31;48512;48.552;9.380;2022-08-11T19:19:51;24.69;38.21
62464;SHT31;48512;48.552;9.380;2022-08-11T19:22:37;24.45;38.95
62464;SHT31;48512;48.552;9.380;2022-08-11T19:25:21;24.36;38.93
62464;SHT31;48512;48.552;9.380;2022-08-11T19:28:07;24.22;39.28
62464;SHT31;48512;48.552;9.380;2022-08-11T19:30:52;24.11;39.62
62464;SHT31;48512;48.552;9.380;2022-08-11T19:33:38;23.87;39.83
62464;SHT31;48512;48.552;9.380;2022-08-11T19:36:23;23.65;40.34
62464;SHT31;48512;48.552;9.380;2022-08-11T19:39:08;23.59;40.66
62464;SHT31;48512;48.552;9.380;2022-08-11T19:41:54;23.63;40.81
62464;SHT31;48512;48.552;9.380;2022-08-11T19:44:40;23.77;40.88
62464;SHT31;48512;48.552;9.380;2022-08-11T19:47:25;23.60;41.46
62464;SHT31;48512;48.552;9.380;2022-08-11T19:50:12;23.52;41.64
62464;SHT31;48512;48.552;9.380;2022-08-11T19:52:56;23.53;42.39
62464;SHT31;48512;48.552;9.380;2022-08-11T19:55:41;23.35;42.30
62464;SHT31;48512;48.552;9.380;2022-08-11T19:58:26;23.18;42.49
62464;SHT31;48512;48.552;9.380;2022-08-11T20:01:10;22.94;43.11
62464;SHT31;48512;48.552;9.380;2022-08-11T20:03:54;22.68;43.84
62464;SHT31;48512;48.552;9.380;2022-08-11T20:06:39;22.36;44.57
62464;SHT31;48512;48.552;9.380;2022-08-11T20:09:23;21.95;45.37
62464;SHT31;48512;48.552;9.380;2022-08-11T20:12:08;21.99;45.21
62464;SHT31;48512;48.552;9.380;2022-08-11T20:14:54;21.85;45.59
62464;SHT31;48512;48.552;9.380;2022-08-11T20:17:39;21.60;46.53
62464;SHT31;48512;48.552;9.380;2022-08-11T20:20:25;21.39;47.00